Ternopil, Ukraine
Current Conditions -  °F | °C
As of 11:00 PM on Saturday 22 Nov 2014 (Local Time) from UKLI Reporting Station
Overcast Overcast  
Wind Chill: 36°   Ceiling: 1900
Heat Index: 36°   Visibility: 6mi
Dew Point: 34°   Wind: 0mph
Humidity: 93%   Direction: NA
Pressure: 30.36"   Gusts: NA
Location:  49.55°N, 25.58°E
Report Text: UKLI 222000Z 00000MPS 9999 OVC019 02/01 Q1028 NOSIG
Loading
Personal Weather Stations






























Interactive Weather Map New forecast layout! Learn more

10-Day Weather Forecast

Advertisements
Track Severe Weather on mobile